Time;durP1;ratioP1;P1;durP2;ratioP2;P2;SDS_P1;SDS_P2;PMS_P1;PMS_P2;Temp;Humidity;BMP_temperature;BMP_pressure;BME280_temperature;BME280_humidity;BME280_pressure;Samples;Min_cycle;Max_cycle;Signal;HPM_P1;HPM_P2
2022/05/02 00:00:09;;;;;;;17.08;8.68;;;;;;;;;;5012590;28;20045;-64
2022/05/02 00:02:35;;;;;;;14.05;8.32;;;;;;;;;;5011151;28;20353;-64
2022/05/02 00:05:02;;;;;;;15.05;8.80;;;;;;;;;;5012129;28;20022;-64
2022/05/02 00:07:28;;;;;;;15.25;8.70;;;;;;;;;;5011279;28;20037;-64
2022/05/02 00:09:54;;;;;;;13.73;8.88;;;;;;;;;;5012170;28;20054;-65
2022/05/02 00:12:20;;;;;;;13.27;8.48;;;;;;;;;;5015467;28;20053;-64
2022/05/02 00:14:46;;;;;;;12.73;8.02;;;;;;;;;;5031300;28;20033;-65
2022/05/02 00:17:12;;;;;;;13.95;8.55;;;;;;;;;;5010781;28;20446;-64
2022/05/02 00:19:38;;;;;;;12.80;7.75;;;;;;;;;;5010962;28;20049;-64
2022/05/02 00:22:04;;;;;;;16.63;9.77;;;;;;;;;;5009414;28;20434;-64
2022/05/02 00:24:31;;;;;;;19.15;9.23;;;;;;;;;;5020388;28;20030;-65
2022/05/02 00:26:57;;;;;;;16.60;9.63;;;;;;;;;;5015335;28;20052;-64
2022/05/02 00:29:24;;;;;;;14.65;8.18;;;;;;;;;;5025639;28;20394;-64
2022/05/02 00:31:50;;;;;;;17.30;9.55;;;;;;;;;;5030776;28;20522;-65
2022/05/02 00:34:16;;;;;;;15.70;8.65;;;;;;;;;;5012174;28;20116;-65
2022/05/02 00:36:43;;;;;;;16.67;9.13;;;;;;;;;;5010421;28;20116;-64
2022/05/02 00:39:09;;;;;;;18.27;8.98;;;;;;;;;;5022195;28;20045;-65
2022/05/02 00:41:35;;;;;;;17.25;8.63;;;;;;;;;;5023243;28;20511;-64
2022/05/02 00:44:01;;;;;;;10.07;7.78;;;;;;;;;;5012843;28;20030;-65
2022/05/02 00:46:27;;;;;;;15.93;10.00;;;;;;;;;;5026043;28;20052;-65
2022/05/02 00:48:54;;;;;;;16.42;9.63;;;;;;;;;;5013880;28;20042;-65
2022/05/02 00:51:20;;;;;;;21.77;9.45;;;;;;;;;;5014210;28;20018;-65
2022/05/02 00:53:48;;;;;;;16.40;9.88;;;;;;;;;;5011196;28;20030;-65
2022/05/02 00:56:16;;;;;;;15.02;9.10;;;;;;;;;;5010857;28;20018;-64
2022/05/02 00:58:42;;;;;;;16.25;9.57;;;;;;;;;;5019371;28;20029;-64
2022/05/02 01:01:08;;;;;;;17.17;8.80;;;;;;;;;;5020215;28;20045;-64
2022/05/02 01:03:34;;;;;;;13.52;8.73;;;;;;;;;;5010881;28;20105;-64
2022/05/02 01:08:45;;;;;;;18.30;9.75;;;;;;;;;;5010519;28;20537;-64
2022/05/02 01:11:12;;;;;;;14.30;8.80;;;;;;;;;;5011911;28;20105;-64
2022/05/02 01:13:38;;;;;;;13.82;8.63;;;;;;;;;;5011300;28;20029;-64
2022/05/02 01:16:23;;;;;;;13.13;8.25;;;;;;;;;;5009255;28;20021;-65
2022/05/02 01:18:51;;;;;;;16.83;9.07;;;;;;;;;;5010949;28;20142;-64
2022/05/02 01:21:18;;;;;;;14.27;8.98;;;;;;;;;;5010124;28;20026;-64
2022/05/02 01:23:45;;;;;;;14.60;8.60;;;;;;;;;;5014766;28;20038;-64
2022/05/02 01:26:11;;;;;;;13.80;8.27;;;;;;;;;;5015256;28;20462;-64
2022/05/02 01:28:54;;;;;;;12.80;7.85;;;;;;;;;;5010403;28;20026;-64
2022/05/02 01:31:21;;;;;;;14.68;7.93;;;;;;;;;;5009510;28;20140;-66
2022/05/02 01:33:48;;;;;;;14.50;8.45;;;;;;;;;;5011091;28;20041;-65
2022/05/02 01:36:14;;;;;;;18.23;8.70;;;;;;;;;;5002513;28;20030;-65
2022/05/02 01:38:40;;;;;;;16.30;9.45;;;;;;;;;;5013343;28;20025;-64
2022/05/02 01:41:07;;;;;;;13.55;8.63;;;;;;;;;;5010948;28;20491;-65
2022/05/02 01:43:33;;;;;;;14.18;9.00;;;;;;;;;;5016694;28;20494;-65
2022/05/02 01:45:59;;;;;;;15.55;8.93;;;;;;;;;;5013219;28;20034;-65
2022/05/02 01:48:26;;;;;;;12.57;7.90;;;;;;;;;;5030406;28;20550;-64
2022/05/02 01:50:52;;;;;;;16.27;8.52;;;;;;;;;;5030226;28;20022;-65
2022/05/02 01:53:18;;;;;;;16.38;8.77;;;;;;;;;;5008133;28;20026;-65
2022/05/02 01:55:44;;;;;;;16.45;8.68;;;;;;;;;;5008031;28;20029;-65
2022/05/02 01:58:10;;;;;;;14.68;8.68;;;;;;;;;;5038002;28;20487;-64
2022/05/02 02:00:36;;;;;;;14.60;8.57;;;;;;;;;;5022644;28;20033;-65
2022/05/02 02:03:02;;;;;;;17.58;9.30;;;;;;;;;;5030629;28;20037;-65
2022/05/02 02:11:16;;;;;;;18.67;10.05;;;;;;;;;;5043727;22;20073;-66
2022/05/02 02:13:42;;;;;;;17.10;9.15;;;;;;;;;;5003955;28;20017;-67
2022/05/02 02:16:13;;;;;;;13.77;8.20;;;;;;;;;;5008128;28;20405;-66
2022/05/02 02:18:40;;;;;;;14.25;8.80;;;;;;;;;;5010373;28;20080;-66
2022/05/02 02:21:07;;;;;;;13.43;8.73;;;;;;;;;;5010588;28;20022;-66
2022/05/02 02:23:33;;;;;;;16.00;8.98;;;;;;;;;;5005187;28;20133;-66
2022/05/02 02:25:59;;;;;;;16.38;9.65;;;;;;;;;;5007368;28;20487;-66
2022/05/02 02:28:25;;;;;;;15.20;8.70;;;;;;;;;;5010030;28;20018;-67
2022/05/02 02:30:51;;;;;;;19.02;9.77;;;;;;;;;;5007947;28;20030;-67
2022/05/02 02:33:17;;;;;;;18.17;8.77;;;;;;;;;;5005355;28;20052;-67
2022/05/02 02:35:43;;;;;;;15.60;8.85;;;;;;;;;;5005150;28;20468;-66
2022/05/02 02:38:12;;;;;;;14.35;8.85;;;;;;;;;;5010062;28;20034;-66
2022/05/02 02:40:38;;;;;;;14.70;8.82;;;;;;;;;;5008039;28;20034;-66
2022/05/02 02:43:04;;;;;;;17.70;9.00;;;;;;;;;;5008783;28;20022;-66
2022/05/02 02:45:30;;;;;;;14.07;8.45;;;;;;;;;;5009661;28;20345;-67
2022/05/02 02:47:56;;;;;;;18.30;10.35;;;;;;;;;;5010034;28;20058;-66
2022/05/02 02:50:22;;;;;;;13.85;8.30;;;;;;;;;;5008790;28;20034;-66
2022/05/02 02:52:49;;;;;;;16.75;9.70;;;;;;;;;;5010401;28;20087;-67
2022/05/02 02:55:15;;;;;;;15.35;8.90;;;;;;;;;;5007002;28;20111;-67
2022/05/02 02:57:41;;;;;;;18.20;9.05;;;;;;;;;;5009935;28;20030;-67
2022/05/02 03:00:07;;;;;;;16.75;9.60;;;;;;;;;;5010138;28;20491;-66
2022/05/02 03:02:36;;;;;;;16.92;9.50;;;;;;;;;;5010286;28;20029;-66
2022/05/02 03:07:50;;;;;;;16.48;10.05;;;;;;;;;;5009230;28;20176;-66
2022/05/02 03:10:16;;;;;;;16.60;9.27;;;;;;;;;;5003196;28;20133;-66
2022/05/02 03:12:43;;;;;;;15.57;9.48;;;;;;;;;;4997056;28;20053;-66
2022/05/02 03:15:09;;;;;;;25.42;9.98;;;;;;;;;;4999443;28;20053;-66
2022/05/02 03:17:35;;;;;;;15.50;9.57;;;;;;;;;;4986145;28;20056;-67
2022/05/02 03:20:01;;;;;;;16.10;9.48;;;;;;;;;;4993659;28;20022;-66
2022/05/02 03:22:27;;;;;;;15.85;9.32;;;;;;;;;;5001380;28;20119;-66
2022/05/02 03:24:53;;;;;;;14.98;8.93;;;;;;;;;;4975341;28;20430;-66
2022/05/02 03:27:19;;;;;;;15.90;9.95;;;;;;;;;;5006989;28;20073;-67
2022/05/02 03:29:45;;;;;;;20.33;9.27;;;;;;;;;;4995153;28;20361;-67
2022/05/02 03:32:11;;;;;;;18.42;9.52;;;;;;;;;;4992486;28;20022;-67
2022/05/02 03:34:37;;;;;;;17.17;9.35;;;;;;;;;;5001832;28;20026;-68
2022/05/02 03:37:04;;;;;;;17.75;9.93;;;;;;;;;;5007776;28;20052;-67
2022/05/02 03:39:30;;;;;;;23.33;9.07;;;;;;;;;;4983926;28;20034;-67
2022/05/02 03:41:56;;;;;;;18.80;9.75;;;;;;;;;;5004946;28;20033;-67
2022/05/02 03:44:22;;;;;;;17.95;8.52;;;;;;;;;;5005012;28;20018;-67
2022/05/02 03:46:48;;;;;;;16.25;9.20;;;;;;;;;;4996991;28;20113;-67
2022/05/02 03:49:14;;;;;;;20.65;10.30;;;;;;;;;;5009851;28;20328;-68
2022/05/02 03:51:40;;;;;;;17.52;9.63;;;;;;;;;;4981840;28;20030;-66
2022/05/02 03:54:06;;;;;;;20.05;10.05;;;;;;;;;;4990593;28;20392;-67
2022/05/02 03:56:32;;;;;;;17.52;10.05;;;;;;;;;;4972683;28;20117;-66
2022/05/02 03:58:58;;;;;;;13.98;9.13;;;;;;;;;;4996633;28;20136;-66
2022/05/02 04:01:24;;;;;;;21.35;10.00;;;;;;;;;;4993305;28;20027;-67
2022/05/02 04:03:50;;;;;;;20.27;10.52;;;;;;;;;;5001032;28;20026;-66
2022/05/02 04:06:16;;;;;;;22.65;10.15;;;;;;;;;;5003879;28;20124;-66
2022/05/02 04:08:42;;;;;;;15.43;9.55;;;;;;;;;;4989039;28;20027;-66
2022/05/02 04:11:08;;;;;;;22.50;9.60;;;;;;;;;;4995520;28;20033;-66
2022/05/02 04:13:34;;;;;;;16.65;9.63;;;;;;;;;;5004867;28;20048;-66
2022/05/02 04:16:00;;;;;;;22.60;10.30;;;;;;;;;;5010060;28;20360;-67
2022/05/02 04:18:26;;;;;;;16.55;9.48;;;;;;;;;;5012340;28;20060;-67
2022/05/02 04:20:52;;;;;;;15.20;9.02;;;;;;;;;;5011034;28;20452;-66
2022/05/02 04:23:18;;;;;;;15.43;9.18;;;;;;;;;;5010502;28;20128;-66
2022/05/02 04:25:44;;;;;;;14.98;9.23;;;;;;;;;;5010620;28;20120;-66
2022/05/02 04:28:11;;;;;;;12.20;8.40;;;;;;;;;;5010745;28;20064;-67
2022/05/02 04:30:37;;;;;;;16.00;9.15;;;;;;;;;;5010668;28;20117;-67
2022/05/02 04:33:04;;;;;;;16.95;9.57;;;;;;;;;;5011834;28;20093;-67
2022/05/02 04:35:30;;;;;;;17.23;9.50;;;;;;;;;;5011883;28;20097;-67
2022/05/02 04:37:57;;;;;;;21.45;9.85;;;;;;;;;;5011904;28;20029;-66
2022/05/02 04:40:23;;;;;;;15.68;9.30;;;;;;;;;;5010052;28;20029;-67
2022/05/02 04:42:49;;;;;;;20.00;10.32;;;;;;;;;;5010773;28;20568;-66
2022/05/02 04:45:15;;;;;;;20.40;9.93;;;;;;;;;;5011506;28;20565;-67
2022/05/02 04:47:41;;;;;;;20.88;9.77;;;;;;;;;;5011540;28;20441;-67
2022/05/02 04:50:07;;;;;;;16.85;9.27;;;;;;;;;;5005757;28;20045;-67
2022/05/02 04:52:33;;;;;;;23.27;11.57;;;;;;;;;;5011042;28;20046;-67
2022/05/02 04:54:59;;;;;;;27.38;12.07;;;;;;;;;;5006547;28;20049;-67
2022/05/02 04:57:28;;;;;;;16.63;10.40;;;;;;;;;;5009348;28;20460;-66
2022/05/02 04:59:54;;;;;;;25.45;11.38;;;;;;;;;;5010838;28;20068;-67
2022/05/02 05:02:20;;;;;;;21.48;12.63;;;;;;;;;;5012110;28;20121;-67
2022/05/02 05:04:46;;;;;;;22.25;12.20;;;;;;;;;;5012042;28;20106;-66
2022/05/02 05:07:12;;;;;;;22.70;12.60;;;;;;;;;;5009541;28;20026;-67
2022/05/02 05:09:38;;;;;;;20.85;12.18;;;;;;;;;;5011367;28;20129;-67
2022/05/02 05:12:04;;;;;;;17.70;10.98;;;;;;;;;;5010188;28;20071;-67
2022/05/02 05:17:30;;;;;;;19.65;10.73;;;;;;;;;;5010752;28;20491;-66
2022/05/02 05:20:20;;;;;;;27.23;12.40;;;;;;;;;;5011595;28;20022;-67
2022/05/02 05:23:05;;;;;;;17.77;10.43;;;;;;;;;;5006526;28;20376;-66
2022/05/02 05:25:36;;;;;;;21.70;11.50;;;;;;;;;;5004739;28;20124;-66
2022/05/02 05:28:09;;;;;;;21.50;11.48;;;;;;;;;;5014122;28;20040;-66
2022/05/02 05:30:38;;;;;;;23.45;11.90;;;;;;;;;;5011630;28;20045;-66
2022/05/02 05:33:22;;;;;;;22.00;12.25;;;;;;;;;;5011250;28;20104;-66
2022/05/02 05:35:54;;;;;;;30.45;12.48;;;;;;;;;;5010849;28;20142;-66
2022/05/02 05:38:23;;;;;;;26.73;13.30;;;;;;;;;;5011038;28;20335;-66
2022/05/02 05:40:57;;;;;;;27.15;14.00;;;;;;;;;;5009069;28;20496;-66
2022/05/02 05:43:23;;;;;;;25.58;13.80;;;;;;;;;;5009224;28;20053;-66
2022/05/02 05:45:58;;;;;;;23.52;13.88;;;;;;;;;;5010246;28;20107;-67
2022/05/02 05:48:44;;;;;;;31.50;15.60;;;;;;;;;;5009704;28;20123;-66
2022/05/02 05:51:23;;;;;;;26.85;14.88;;;;;;;;;;5011147;28;20049;-66
2022/05/02 05:53:52;;;;;;;30.98;15.80;;;;;;;;;;5010501;28;20061;-66
2022/05/02 05:56:30;;;;;;;30.35;15.85;;;;;;;;;;5008561;28;20049;-66
2022/05/02 05:58:56;;;;;;;28.02;15.32;;;;;;;;;;5008749;28;20037;-66
2022/05/02 06:01:55;;;;;;;26.83;14.98;;;;;;;;;;5010630;28;20030;-67
2022/05/02 06:04:22;;;;;;;26.10;14.82;;;;;;;;;;5010451;28;20060;-67
2022/05/02 06:06:48;;;;;;;25.58;15.55;;;;;;;;;;5009560;28;20030;-66
2022/05/02 06:09:15;;;;;;;29.75;15.40;;;;;;;;;;5009986;28;20506;-66
2022/05/02 06:11:44;;;;;;;27.20;14.55;;;;;;;;;;5009518;28;20033;-66
2022/05/02 06:14:11;;;;;;;24.45;14.63;;;;;;;;;;5010357;28;20104;-66
2022/05/02 06:19:28;;;;;;;28.20;15.70;;;;;;;;;;5010340;28;20040;-66
2022/05/02 06:21:54;;;;;;;27.23;14.00;;;;;;;;;;5009343;28;20025;-66
2022/05/02 06:24:23;;;;;;;23.67;14.57;;;;;;;;;;5010529;28;20245;-67
2022/05/02 06:26:49;;;;;;;28.80;14.98;;;;;;;;;;5002148;28;20077;-66
2022/05/02 06:29:16;;;;;;;26.08;14.85;;;;;;;;;;5010263;28;20037;-66
2022/05/02 06:31:44;;;;;;;23.63;14.05;;;;;;;;;;5009302;28;20025;-66
2022/05/02 06:34:11;;;;;;;24.85;14.38;;;;;;;;;;5007536;28;20022;-67
2022/05/02 06:36:37;;;;;;;25.98;13.77;;;;;;;;;;5009458;28;20022;-66
2022/05/02 06:39:04;;;;;;;26.52;14.55;;;;;;;;;;5009501;28;20029;-66
2022/05/02 06:41:54;;;;;;;22.45;12.60;;;;;;;;;;5008001;28;20034;-66
2022/05/02 06:44:20;;;;;;;25.08;14.60;;;;;;;;;;5007426;28;20030;-67
2022/05/02 06:47:00;;;;;;;22.10;13.98;;;;;;;;;;5009413;28;20049;-67
2022/05/02 06:49:26;;;;;;;29.43;14.03;;;;;;;;;;5009780;28;20038;-66
2022/05/02 06:51:55;;;;;;;21.35;12.90;;;;;;;;;;5010527;28;20025;-66
2022/05/02 06:54:38;;;;;;;30.85;15.60;;;;;;;;;;5008694;28;20095;-66
2022/05/02 06:57:10;;;;;;;31.58;13.80;;;;;;;;;;5007287;28;20479;-67
2022/05/02 06:59:52;;;;;;;24.08;13.93;;;;;;;;;;5002504;28;20042;-66
2022/05/02 07:02:25;;;;;;;24.90;13.32;;;;;;;;;;5010664;28;20029;-66
2022/05/02 07:04:52;;;;;;;27.67;14.95;;;;;;;;;;5010546;28;20080;-66
2022/05/02 07:07:30;;;;;;;25.63;14.80;;;;;;;;;;5008118;28;20491;-66
2022/05/02 07:10:02;;;;;;;23.88;13.65;;;;;;;;;;5004813;28;20022;-67
2022/05/02 07:12:30;;;;;;;25.20;13.02;;;;;;;;;;5005285;28;20037;-66
2022/05/02 07:14:56;;;;;;;18.25;12.00;;;;;;;;;;5009989;28;20026;-66
2022/05/02 07:17:40;;;;;;;23.63;12.70;;;;;;;;;;5002136;28;20125;-67
2022/05/02 07:20:12;;;;;;;21.90;12.70;;;;;;;;;;5013451;28;20129;-66
2022/05/02 07:22:52;;;;;;;26.63;13.57;;;;;;;;;;5005193;28;20113;-66
2022/05/02 07:25:21;;;;;;;25.02;13.05;;;;;;;;;;5012298;28;20026;-67
2022/05/02 07:27:50;;;;;;;18.95;11.52;;;;;;;;;;5010115;28;20034;-67
2022/05/02 07:30:17;;;;;;;22.63;12.77;;;;;;;;;;5009924;28;20399;-68
2022/05/02 07:32:44;;;;;;;25.30;13.35;;;;;;;;;;5013751;28;20414;-66
2022/05/02 07:35:11;;;;;;;25.25;12.15;;;;;;;;;;5008909;28;20030;-67
2022/05/02 07:37:39;;;;;;;21.20;10.75;;;;;;;;;;5012091;28;20092;-67
2022/05/02 07:40:06;;;;;;;20.98;11.90;;;;;;;;;;5013638;28;20014;-67
2022/05/02 07:42:33;;;;;;;18.52;10.57;;;;;;;;;;5006050;28;20032;-66
2022/05/02 07:45:00;;;;;;;24.05;12.60;;;;;;;;;;5014546;28;20522;-67
2022/05/02 07:47:28;;;;;;;24.88;12.05;;;;;;;;;;5012947;28;20037;-67
2022/05/02 07:49:55;;;;;;;22.55;12.88;;;;;;;;;;5020159;28;20021;-67
2022/05/02 07:52:22;;;;;;;21.45;12.05;;;;;;;;;;5013402;28;20069;-67
2022/05/02 07:54:48;;;;;;;19.75;12.23;;;;;;;;;;5005519;28;20022;-67
2022/05/02 07:57:15;;;;;;;20.05;12.75;;;;;;;;;;5009456;28;20072;-66
2022/05/02 07:59:41;;;;;;;23.45;12.23;;;;;;;;;;5012459;28;20703;-66
2022/05/02 08:02:08;;;;;;;23.30;13.18;;;;;;;;;;5011376;28;20029;-66
2022/05/02 08:04:37;;;;;;;22.80;14.73;;;;;;;;;;5012679;28;20049;-67
2022/05/02 08:07:11;;;;;;;23.65;14.15;;;;;;;;;;5027228;28;20025;-67
2022/05/02 08:09:37;;;;;;;21.67;13.77;;;;;;;;;;5011040;28;20030;-67
2022/05/02 08:12:07;;;;;;;28.17;15.02;;;;;;;;;;4996362;28;20113;-67
2022/05/02 08:14:38;;;;;;;23.30;12.18;;;;;;;;;;5001257;28;20026;-67
2022/05/02 08:17:12;;;;;;;22.55;14.82;;;;;;;;;;4978607;28;20030;-67
2022/05/02 08:19:47;;;;;;;20.67;11.35;;;;;;;;;;4993625;28;20018;-67
2022/05/02 08:28:23;;;;;;;22.95;14.07;;;;;;;;;;5024875;23;20061;-63
2022/05/02 08:30:56;;;;;;;23.40;12.48;;;;;;;;;;4986127;28;20096;-63
2022/05/02 08:33:26;;;;;;;25.48;13.50;;;;;;;;;;5012073;28;20034;-63
2022/05/02 08:36:01;;;;;;;19.58;12.80;;;;;;;;;;5006555;28;20054;-63
2022/05/02 08:38:46;;;;;;;23.40;14.77;;;;;;;;;;5010339;28;20129;-63
2022/05/02 08:41:21;;;;;;;22.27;13.27;;;;;;;;;;5011654;28;20026;-63
2022/05/02 08:44:06;;;;;;;20.88;12.77;;;;;;;;;;5011209;28;20483;-63
2022/05/02 08:46:32;;;;;;;18.77;11.63;;;;;;;;;;5010906;28;20065;-66
2022/05/02 08:52:01;;;;;;;26.23;13.82;;;;;;;;;;5007197;28;20060;-65
2022/05/02 08:54:30;;;;;;;21.25;12.43;;;;;;;;;;5026514;28;20080;-65
2022/05/02 08:57:11;;;;;;;22.67;12.20;;;;;;;;;;5009354;28;20026;-65
2022/05/02 08:59:36;;;;;;;;;;;;;;;;;;5010685;28;20061;-65
2022/05/02 09:02:22;;;;;;;22.13;12.80;;;;;;;;;;5010182;28;19955;-65
2022/05/02 09:05:06;;;;;;;18.92;11.07;;;;;;;;;;5010907;28;20053;-65
2022/05/02 09:07:38;;;;;;;20.02;12.15;;;;;;;;;;5010218;28;20037;-66
2022/05/02 09:10:15;;;;;;;22.58;13.45;;;;;;;;;;5011162;28;20017;-65
2022/05/02 09:12:56;;;;;;;21.75;12.25;;;;;;;;;;5011791;28;20026;-65
2022/05/02 09:15:41;;;;;;;29.25;13.68;;;;;;;;;;5025448;28;20490;-66
2022/05/02 09:18:19;;;;;;;27.73;14.63;;;;;;;;;;5010493;28;20571;-66
2022/05/02 09:21:04;;;;;;;23.10;13.52;;;;;;;;;;5003635;28;20192;-65
2022/05/02 09:23:30;;;;;;;20.75;12.38;;;;;;;;;;5008247;28;20034;-65
2022/05/02 09:26:28;;;;;;;23.02;12.73;;;;;;;;;;5010051;28;20038;-65
2022/05/02 09:28:54;;;;;;;22.50;12.55;;;;;;;;;;5003959;28;20037;-66
2022/05/02 09:31:28;;;;;;;19.70;10.40;;;;;;;;;;5010737;28;20065;-65
2022/05/02 09:34:04;;;;;;;16.48;10.10;;;;;;;;;;5010750;28;20128;-65
2022/05/02 09:36:50;;;;;;;22.00;12.68;;;;;;;;;;5009678;28;20018;-65
2022/05/02 09:39:24;;;;;;;24.20;14.15;;;;;;;;;;4986439;28;20037;-66
2022/05/02 09:42:04;;;;;;;24.02;12.45;;;;;;;;;;5011225;28;20022;-65
2022/05/02 09:50:22;;;;;;;20.40;12.25;;;;;;;;;;5010209;28;20470;-65
2022/05/02 09:53:07;;;;;;;19.02;10.80;;;;;;;;;;5010697;28;20026;-66
2022/05/02 09:58:26;;;;;;;18.17;11.60;;;;;;;;;;4981261;28;20034;-67
2022/05/02 10:01:07;;;;;;;19.40;11.40;;;;;;;;;;5016065;28;20026;-66
2022/05/02 10:03:51;;;;;;;22.33;11.65;;;;;;;;;;5009870;28;20042;-67
2022/05/02 10:06:20;;;;;;;24.90;14.48;;;;;;;;;;5009944;28;20037;-66
2022/05/02 10:09:05;;;;;;;25.02;14.43;;;;;;;;;;5009849;28;20071;-65
2022/05/02 10:11:50;;;;;;;26.40;14.02;;;;;;;;;;5007221;28;20037;-65
2022/05/02 10:14:32;;;;;;;24.35;14.75;;;;;;;;;;5020767;28;20041;-65
2022/05/02 10:17:01;;;;;;;22.08;12.40;;;;;;;;;;5009645;28;20507;-65
2022/05/02 10:19:38;;;;;;;17.63;10.93;;;;;;;;;;5006034;28;20022;-66
2022/05/02 10:22:23;;;;;;;20.33;11.95;;;;;;;;;;5010033;28;20026;-65
2022/05/02 10:24:56;;;;;;;18.83;10.48;;;;;;;;;;5006009;28;20489;-65
2022/05/02 10:27:37;;;;;;;24.40;12.45;;;;;;;;;;5006070;28;20038;-66
2022/05/02 10:30:11;;;;;;;25.40;12.77;;;;;;;;;;5009093;28;20323;-65
2022/05/02 10:32:49;;;;;;;19.88;12.70;;;;;;;;;;5007544;28;20026;-67
2022/05/02 10:35:17;;;;;;;18.30;11.23;;;;;;;;;;5007808;28;20479;-66
2022/05/02 10:37:50;;;;;;;33.38;17.48;;;;;;;;;;5009159;28;20025;-65
2022/05/02 10:40:17;;;;;;;25.02;12.50;;;;;;;;;;5010004;28;20038;-65
2022/05/02 10:42:51;;;;;;;23.92;13.35;;;;;;;;;;5009992;28;20013;-66
2022/05/02 10:45:17;;;;;;;25.65;14.38;;;;;;;;;;5008354;28;20092;-65
2022/05/02 10:47:43;;;;;;;21.75;11.95;;;;;;;;;;5008989;28;20499;-65
2022/05/02 10:50:15;;;;;;;17.13;11.15;;;;;;;;;;5012173;28;20315;-66
2022/05/02 10:52:49;;;;;;;26.80;12.77;;;;;;;;;;5013990;28;20108;-66
2022/05/02 10:55:31;;;;;;;19.92;11.57;;;;;;;;;;5012471;28;20364;-66
2022/05/02 10:58:09;;;;;;;17.80;10.43;;;;;;;;;;5007107;28;20057;-65
2022/05/02 11:00:43;;;;;;;24.45;10.50;;;;;;;;;;5012968;28;20062;-66
2022/05/02 11:03:12;;;;;;;16.67;10.88;;;;;;;;;;5012503;28;20113;-66
2022/05/02 11:05:50;;;;;;;14.90;9.13;;;;;;;;;;5010117;28;20041;-65
2022/05/02 11:08:23;;;;;;;12.52;7.32;;;;;;;;;;5012570;28;20070;-65
2022/05/02 11:11:00;;;;;;;13.95;8.60;;;;;;;;;;5010586;28;20030;-65
2022/05/02 11:13:30;;;;;;;19.27;9.02;;;;;;;;;;5013461;28;20037;-65
2022/05/02 11:16:03;;;;;;;14.70;8.60;;;;;;;;;;5011632;28;20044;-66
2022/05/02 11:21:29;;;;;;;17.88;9.70;;;;;;;;;;5013338;28;20045;-66
2022/05/02 11:24:05;;;;;;;19.25;12.38;;;;;;;;;;5013750;28;20080;-66
2022/05/02 11:26:45;;;;;;;17.52;10.20;;;;;;;;;;5012403;28;20034;-66
2022/05/02 11:29:18;;;;;;;15.75;10.32;;;;;;;;;;5012823;28;20037;-66
2022/05/02 11:31:48;;;;;;;17.00;10.30;;;;;;;;;;5013094;28;20115;-66
2022/05/02 11:34:26;;;;;;;14.10;9.23;;;;;;;;;;5013466;28;20018;-65
2022/05/02 11:36:54;;;;;;;14.18;8.55;;;;;;;;;;5004386;28;20040;-67
2022/05/02 11:39:21;;;;;;;17.30;9.73;;;;;;;;;;5013692;28;20127;-65
2022/05/02 11:41:47;;;;;;;14.73;8.85;;;;;;;;;;5013020;28;20283;-65
2022/05/02 11:44:15;;;;;;;16.02;9.18;;;;;;;;;;5010041;28;20018;-66
2022/05/02 11:46:59;;;;;;;19.10;12.82;;;;;;;;;;5000818;28;20451;-66
2022/05/02 11:49:31;;;;;;;18.00;10.63;;;;;;;;;;5012635;28;20021;-66
2022/05/02 11:52:01;;;;;;;16.85;11.07;;;;;;;;;;5011651;28;20032;-66
2022/05/02 11:54:40;;;;;;;13.52;8.57;;;;;;;;;;5012794;28;20026;-66
2022/05/02 11:57:05;;;;;;;14.40;8.20;;;;;;;;;;5010640;28;20061;-65
2022/05/02 11:59:55;;;;;;;14.27;7.72;;;;;;;;;;5010135;28;20116;-67
2022/05/02 12:02:33;;;;;;;21.50;8.68;;;;;;;;;;5005453;28;20065;-66
2022/05/02 12:05:02;;;;;;;15.00;8.73;;;;;;;;;;5013442;28;20092;-66
2022/05/02 12:07:32;;;;;;;19.15;8.07;;;;;;;;;;5012142;28;20029;-66
2022/05/02 12:10:04;;;;;;;14.45;8.23;;;;;;;;;;5012505;28;20114;-66
2022/05/02 12:12:31;;;;;;;13.90;9.05;;;;;;;;;;5012768;28;20026;-66
2022/05/02 12:15:01;;;;;;;20.95;9.70;;;;;;;;;;5012345;28;20030;-65
2022/05/02 12:17:27;;;;;;;13.35;7.18;;;;;;;;;;5011460;28;20084;-65
2022/05/02 12:19:53;;;;;;;16.35;9.02;;;;;;;;;;5012471;28;20026;-66
2022/05/02 12:22:26;;;;;;;15.52;8.90;;;;;;;;;;5011638;28;20467;-65
2022/05/02 12:25:12;;;;;;;14.65;9.38;;;;;;;;;;5004339;28;20116;-66
2022/05/02 12:27:38;;;;;;;12.93;7.70;;;;;;;;;;5009995;28;20073;-65
2022/05/02 12:30:05;;;;;;;15.73;7.50;;;;;;;;;;5011674;28;20042;-65
2022/05/02 12:32:33;;;;;;;9.82;6.32;;;;;;;;;;5011635;28;20529;-66
2022/05/02 12:35:01;;;;;;;14.45;7.57;;;;;;;;;;5011683;28;20025;-65
2022/05/02 12:37:30;;;;;;;15.40;7.63;;;;;;;;;;4993393;28;20513;-67
2022/05/02 12:40:10;;;;;;;13.75;6.68;;;;;;;;;;5011777;28;20479;-65
2022/05/02 12:42:36;;;;;;;;;;;;;;;;;;5012000;28;20030;-66
2022/05/02 12:45:04;;;;;;;12.00;7.60;;;;;;;;;;5013360;28;19920;-65
2022/05/02 12:47:34;;;;;;;12.90;7.40;;;;;;;;;;5013748;28;20491;-66
2022/05/02 12:50:12;;;;;;;12.07;7.45;;;;;;;;;;5011688;28;20021;-65
2022/05/02 12:52:43;;;;;;;10.70;7.35;;;;;;;;;;4993465;28;20473;-66
2022/05/02 12:55:09;;;;;;;13.40;7.78;;;;;;;;;;5011406;28;20026;-66
2022/05/02 13:00:31;;;;;;;9.45;6.35;;;;;;;;;;5010514;28;20045;-66
2022/05/02 13:02:59;;;;;;;10.05;6.50;;;;;;;;;;5011587;28;20026;-65
2022/05/02 13:05:29;;;;;;;10.82;6.32;;;;;;;;;;5011357;28;20395;-66
2022/05/02 13:07:56;;;;;;;14.63;7.30;;;;;;;;;;5014505;28;20496;-65
2022/05/02 13:10:29;;;;;;;15.82;8.57;;;;;;;;;;5023076;28;20285;-67
2022/05/02 13:12:56;;;;;;;12.45;6.90;;;;;;;;;;5001369;28;20018;-65
2022/05/02 13:15:23;;;;;;;11.65;7.50;;;;;;;;;;5010097;28;20034;-67
2022/05/02 13:17:51;;;;;;;12.43;7.97;;;;;;;;;;5010677;28;20448;-65
2022/05/02 13:20:18;;;;;;;11.75;7.20;;;;;;;;;;5017567;28;20022;-65
2022/05/02 13:23:03;;;;;;;16.38;5.88;;;;;;;;;;5011043;28;20033;-65
2022/05/02 13:25:48;;;;;;;12.25;6.53;;;;;;;;;;5011138;28;20387;-66
2022/05/02 13:31:30;;;;;;;12.82;6.25;;;;;;;;;;5014345;28;20052;-65
2022/05/02 13:33:59;;;;;;;10.52;7.30;;;;;;;;;;5011123;28;20060;-65
2022/05/02 13:36:25;;;;;;;10.00;5.78;;;;;;;;;;5010813;28;20080;-65
2022/05/02 13:39:12;;;;;;;12.65;8.77;;;;;;;;;;5025578;28;20395;-65
2022/05/02 13:41:49;;;;;;;15.93;8.82;;;;;;;;;;5009558;28;20383;-65
2022/05/02 13:44:31;;;;;;;12.52;7.75;;;;;;;;;;5011112;28;20025;-65
2022/05/02 13:47:01;;;;;;;14.90;10.45;;;;;;;;;;5017300;28;20034;-65
2022/05/02 13:49:34;;;;;;;12.10;8.35;;;;;;;;;;5010735;28;20535;-65
2022/05/02 13:52:03;;;;;;;13.93;7.97;;;;;;;;;;5011344;28;20442;-65
2022/05/02 13:54:34;;;;;;;13.15;7.70;;;;;;;;;;5012836;28;20128;-65
2022/05/02 13:57:12;;;;;;;13.02;6.47;;;;;;;;;;5009763;28;20109;-65
2022/05/02 13:59:43;;;;;;;12.00;7.70;;;;;;;;;;5010584;28;20042;-65
2022/05/02 14:02:18;;;;;;;11.18;6.47;;;;;;;;;;5016701;28;20037;-65
2022/05/02 14:04:53;;;;;;;10.98;6.82;;;;;;;;;;5010083;28;20390;-65
2022/05/02 14:07:19;;;;;;;10.18;6.63;;;;;;;;;;5009849;28;20092;-65
2022/05/02 14:09:48;;;;;;;7.68;5.75;;;;;;;;;;5009505;28;20025;-66
2022/05/02 14:12:23;;;;;;;13.77;4.40;;;;;;;;;;5025222;28;20045;-66
2022/05/02 14:14:56;;;;;;;12.70;6.53;;;;;;;;;;5010223;28;20057;-66
2022/05/02 14:17:28;;;;;;;7.63;5.45;;;;;;;;;;5008085;28;20033;-67
2022/05/02 14:20:11;;;;;;;9.30;5.22;;;;;;;;;;5010637;28;20076;-66
2022/05/02 14:22:37;;;;;;;13.07;5.07;;;;;;;;;;5025499;28;20100;-65
2022/05/02 14:25:04;;;;;;;12.88;7.85;;;;;;;;;;5010121;28;20428;-65
2022/05/02 14:27:30;;;;;;;10.68;6.57;;;;;;;;;;5010207;28;20124;-66
2022/05/02 14:30:06;;;;;;;10.68;6.63;;;;;;;;;;5009905;28;20061;-65
2022/05/02 14:32:41;;;;;;;11.18;6.10;;;;;;;;;;4992063;28;20538;-65
2022/05/02 14:35:08;;;;;;;11.57;6.53;;;;;;;;;;5004181;28;20108;-65
2022/05/02 14:37:38;;;;;;;6.82;4.93;;;;;;;;;;5014991;28;20312;-66
2022/05/02 14:40:04;;;;;;;11.33;5.70;;;;;;;;;;5009756;28;20026;-65
2022/05/02 14:42:31;;;;;;;9.38;4.25;;;;;;;;;;5009733;28;20038;-65
2022/05/02 14:44:58;;;;;;;8.85;5.32;;;;;;;;;;5009624;28;20036;-65
2022/05/02 14:50:09;;;;;;;10.20;4.57;;;;;;;;;;5004750;22;20051;-66
2022/05/02 14:52:36;;;;;;;11.13;5.90;;;;;;;;;;4990179;28;20093;-66
2022/05/02 14:55:04;;;;;;;10.15;6.03;;;;;;;;;;4989538;28;20019;-65
2022/05/02 14:57:30;;;;;;;10.40;6.72;;;;;;;;;;4989269;28;20045;-65
2022/05/02 14:59:59;;;;;;;7.75;6.15;;;;;;;;;;4990312;28;20026;-66
2022/05/02 15:02:26;;;;;;;10.48;6.65;;;;;;;;;;4989567;28;20030;-66
2022/05/02 15:05:00;;;;;;;11.35;6.47;;;;;;;;;;4990004;28;20029;-66
2022/05/02 15:07:30;;;;;;;9.55;6.10;;;;;;;;;;4989393;28;20591;-66
2022/05/02 15:10:15;;;;;;;8.15;6.10;;;;;;;;;;4989618;28;20026;-65
2022/05/02 15:13:00;;;;;;;10.35;6.93;;;;;;;;;;4989219;28;20018;-65
2022/05/02 15:15:59;;;;;;;9.85;5.82;;;;;;;;;;4985361;28;20519;-65
2022/05/02 15:21:38;;;;;;;9.52;6.13;;;;;;;;;;4991485;28;20068;-65
2022/05/02 15:24:22;;;;;;;10.10;6.13;;;;;;;;;;4979508;28;20581;-65
2022/05/02 15:26:50;;;;;;;16.98;6.97;;;;;;;;;;4989517;28;20558;-65
2022/05/02 15:36:39;;;;;;;14.05;6.63;;;;;;;;;;4986699;28;20463;-65
2022/05/02 15:38:29;;;;;;;7.97;5.57;;;;;;;;;;4990066;28;20073;-65
2022/05/02 15:40:55;;;;;;;7.25;5.10;;;;;;;;;;4989574;28;20042;-65